createdAt,value
2017-09-25T00:02:34.476Z,48.86
2017-09-25T00:17:34.533Z,49.50
2017-09-25T00:32:35.588Z,48.81
2017-09-25T00:47:34.863Z,49.89
2017-09-25T01:02:38.783Z,50.54
2017-09-25T01:17:34.790Z,50.84
2017-09-25T01:32:34.862Z,50.97
2017-09-25T01:47:35.154Z,50.52
2017-09-25T02:02:35.258Z,49.83
2017-09-25T02:17:35.092Z,50.34
2017-09-25T02:32:35.041Z,51.23
2017-09-25T02:47:34.407Z,51.83
2017-09-25T03:02:35.454Z,51.52
2017-09-25T03:17:36.055Z,51.99
2017-09-25T03:32:37.348Z,52.42
2017-09-25T03:47:34.931Z,52.21
2017-09-25T04:02:37.735Z,51.94
2017-09-25T04:17:39.309Z,51.71
2017-09-25T04:32:36.649Z,52.18
2017-09-25T04:47:37.056Z,52.22
2017-09-25T05:02:35.775Z,51.29
2017-09-25T05:17:37.220Z,50.47
2017-09-25T05:32:34.938Z,50.87
2017-09-25T05:47:35.365Z,51.49
2017-09-25T06:02:35.310Z,51.91
2017-09-25T06:17:38.469Z,52.15
2017-09-25T06:32:35.357Z,52.32
2017-09-25T06:47:36.653Z,52.04
2017-09-25T07:02:35.373Z,52.43
2017-09-25T07:17:36.565Z,53.43
2017-09-25T07:32:34.507Z,54.68
2017-09-25T07:47:34.924Z,54.24
2017-09-25T08:02:34.883Z,51.54
2017-09-25T08:17:34.853Z,51.49
2017-09-25T08:32:34.817Z,52.22
2017-09-25T08:47:34.738Z,51.17
2017-09-25T09:02:35.189Z,50.95
2017-09-25T09:17:35.132Z,51.75
2017-09-25T09:32:37.109Z,51.42
2017-09-25T09:47:36.593Z,50.35
2017-09-25T10:02:34.481Z,50.41
2017-09-25T10:17:34.429Z,50.39
2017-09-25T10:32:35.384Z,49.92
2017-09-25T10:47:35.590Z,49.12
2017-09-25T11:02:34.725Z,47.86
2017-09-25T11:17:34.830Z,47.42
2017-09-25T11:32:37.332Z,46.70
2017-09-25T11:47:35.071Z,45.88
2017-09-25T12:02:35.070Z,43.68
2017-09-25T12:17:34.986Z,42.99
2017-09-25T12:32:34.931Z,43.58
2017-09-25T12:47:34.903Z,44.09
2017-09-25T13:02:34.918Z,45.31
2017-09-25T13:17:36.822Z,48.09
2017-09-25T13:32:36.761Z,49.48
2017-09-25T13:47:34.519Z,50.09
2017-09-25T14:02:34.512Z,50.39
2017-09-25T14:17:34.490Z,51.37
2017-09-25T14:32:34.354Z,52.35
2017-09-25T14:47:36.784Z,52.98
2017-09-25T15:02:35.804Z,54.33
2017-09-25T15:17:34.749Z,55.12
2017-09-25T15:32:34.699Z,55.54
2017-09-25T15:47:35.117Z,55.94
2017-09-25T16:02:35.037Z,56.05
2017-09-25T16:17:37.666Z,55.42
2017-09-25T16:32:35.040Z,56.63
2017-09-25T16:47:36.287Z,57.92
2017-09-25T17:02:34.395Z,58.11
2017-09-25T17:17:40.608Z,58.48
2017-09-25T17:32:39.367Z,58.42
2017-09-25T17:47:34.715Z,58.62
2017-09-25T18:02:34.772Z,58.68
2017-09-25T18:17:36.717Z,58.56
2017-09-25T18:32:36.578Z,58.55
2017-09-25T18:47:35.036Z,58.81
2017-09-25T19:02:34.995Z,58.80
2017-09-25T19:17:34.916Z,58.78
2017-09-25T19:32:38.970Z,58.85
2017-09-25T19:47:50.252Z,58.79
2017-09-25T20:02:35.355Z,59.20
2017-09-25T20:17:36.040Z,59.59
2017-09-25T20:32:35.569Z,59.93
2017-09-25T20:47:34.630Z,60.54
2017-09-25T21:02:35.349Z,61.20
2017-09-25T21:17:34.631Z,61.78
2017-09-25T21:32:37.571Z,62.09
2017-09-25T21:47:34.944Z,62.88
2017-09-25T22:02:36.917Z,64.01
2017-09-25T22:17:36.887Z,65.08
2017-09-25T22:32:34.894Z,66.61
2017-09-25T22:47:35.252Z,66.01
2017-09-25T23:02:37.222Z,69.40
2017-09-25T23:17:37.139Z,71.20
2017-09-25T23:32:36.214Z,71.72
2017-09-25T23:47:34.515Z,73.89
